Time;durP1;ratioP1;P1;durP2;ratioP2;P2;SDS_P1;SDS_P2;PMS_P1;PMS_P2;Temp;Humidity;BMP_temperature;BMP_pressure;BME280_temperature;BME280_humidity;BME280_pressure;Samples;Min_cycle;Max_cycle;Signal;HPM_P1;HPM_P2
2022/03/04 00:02:22;;;;;;;9.05;6.37;;;;;;;2.09;81.06;99784.23;1783554;80;20857;-72
2022/03/04 00:04:49;;;;;;;8.75;7.58;;;;;;;2.11;80.99;99790.61;1783826;80;21167;-73
2022/03/04 00:07:16;;;;;;;11.08;7.60;;;;;;;2.12;80.94;99787.97;1783355;80;20888;-72
2022/03/04 00:09:42;;;;;;;9.35;7.47;;;;;;;2.11;80.84;99792.73;1783869;80;20872;-72
2022/03/04 00:12:10;;;;;;;8.35;6.72;;;;;;;2.09;80.73;99793.28;1783493;80;20928;-72
2022/03/04 00:14:37;;;;;;;7.35;6.55;;;;;;;2.07;80.85;99791.20;1783322;80;21390;-73
2022/03/04 00:17:04;;;;;;;8.45;7.15;;;;;;;2.06;80.86;99784.33;1783831;80;21841;-73
2022/03/04 00:19:30;;;;;;;8.98;6.65;;;;;;;2.07;80.87;99789.91;1783401;80;21018;-73
2022/03/04 00:21:57;;;;;;;9.18;7.60;;;;;;;2.08;80.78;99798.04;1783953;80;20896;-72
2022/03/04 00:24:24;;;;;;;7.70;6.90;;;;;;;2.10;80.76;99789.77;1783429;80;20975;-73
2022/03/04 00:26:51;;;;;;;9.18;7.62;;;;;;;2.08;80.53;99786.41;1783945;80;21011;-72
2022/03/04 00:29:18;;;;;;;7.30;6.60;;;;;;;2.04;80.51;99786.96;1783390;80;21178;-72
2022/03/04 00:31:45;;;;;;;9.33;7.92;;;;;;;2.02;80.53;99788.79;1783698;80;20833;-73
2022/03/04 00:34:12;;;;;;;9.48;7.47;;;;;;;2.01;80.61;99790.13;1783431;80;21041;-73
2022/03/04 00:36:39;;;;;;;8.83;6.92;;;;;;;2.01;80.58;99788.37;1783666;80;21002;-73
2022/03/04 00:39:13;;;;;;;8.80;6.75;;;;;;;2.02;80.63;99786.63;1783560;80;20856;-73
2022/03/04 00:41:39;;;;;;;9.05;7.17;;;;;;;2.01;80.49;99785.80;1783811;80;21173;-73
2022/03/04 00:44:06;;;;;;;7.40;6.70;;;;;;;1.98;80.43;99781.18;1783461;80;20888;-73
2022/03/04 00:46:34;;;;;;;7.55;6.03;;;;;;;1.99;80.42;99786.30;1783704;80;20928;-73
2022/03/04 00:49:01;;;;;;;9.30;6.50;;;;;;;1.97;80.34;99792.44;1783352;80;21026;-72
2022/03/04 00:51:28;;;;;;;8.80;6.55;;;;;;;1.93;80.40;99789.57;1783768;80;20924;-73
2022/03/04 00:53:55;;;;;;;8.38;6.72;;;;;;;1.89;80.33;99785.41;1783510;80;21167;-73
2022/03/04 00:56:22;;;;;;;6.87;6.17;;;;;;;1.86;80.40;99787.21;1783685;80;20987;-72
2022/03/04 00:58:49;;;;;;;10.63;7.55;;;;;;;1.85;80.45;99788.58;1783551;80;21347;-73
2022/03/04 01:01:16;;;;;;;12.15;8.63;;;;;;;1.85;80.45;99789.88;1783873;80;21393;-73
2022/03/04 01:03:43;;;;;;;10.10;7.72;;;;;;;1.83;80.24;99791.67;1783621;80;21417;-72
2022/03/04 01:06:10;;;;;;;10.55;7.97;;;;;;;1.79;80.33;99788.34;1783777;80;21715;-73
2022/03/04 01:08:36;;;;;;;9.35;7.30;;;;;;;1.77;80.41;99788.85;1783502;80;20869;-73
2022/03/04 01:11:03;;;;;;;12.20;8.28;;;;;;;1.76;80.51;99788.47;1783750;80;20991;-72
2022/03/04 01:13:30;;;;;;;9.80;8.28;;;;;;;1.76;80.58;99791.52;1781137;80;20972;-72
2022/03/04 01:15:57;;;;;;;8.65;7.12;;;;;;;1.75;80.66;99786.77;1775290;80;21347;-72
2022/03/04 01:18:24;;;;;;;11.55;8.40;;;;;;;1.76;80.71;99780.72;1775503;80;21824;-72
2022/03/04 01:20:51;;;;;;;10.65;8.50;;;;;;;1.76;80.78;99782.01;1775199;80;20963;-72
2022/03/04 01:23:18;;;;;;;11.03;8.38;;;;;;;1.73;80.74;99779.98;1775414;80;20880;-72
2022/03/04 01:27:38;;;;;;;11.15;9.35;;;;;;;1.73;81.00;99782.56;1797724;79;22118;-73
2022/03/04 01:30:07;;;;;;;12.35;9.68;;;;;;;1.65;81.09;99787.57;1758406;80;20975;-73
2022/03/04 01:32:35;;;;;;;13.32;8.88;;;;;;;1.62;81.23;99783.82;1758583;80;21362;-72
2022/03/04 01:35:01;;;;;;;12.65;10.38;;;;;;;1.63;81.34;99792.41;1758159;81;21409;-73
2022/03/04 01:37:28;;;;;;;14.15;10.60;;;;;;;1.62;81.49;99792.86;1758614;80;20921;-72
2022/03/04 01:39:55;;;;;;;12.60;9.68;;;;;;;1.65;81.56;99790.16;1758248;81;21006;-72
2022/03/04 01:42:22;;;;;;;14.35;9.73;;;;;;;1.65;81.52;99793.20;1758621;80;20906;-71
2022/03/04 01:44:49;;;;;;;14.47;9.43;;;;;;;1.62;81.64;99796.73;1758368;80;21983;-72
2022/03/04 01:47:16;;;;;;;13.28;9.48;;;;;;;1.62;81.67;99799.33;1758434;81;21529;-72
2022/03/04 01:49:43;;;;;;;13.15;10.03;;;;;;;1.62;81.81;99796.73;1758326;80;20861;-72
2022/03/04 01:52:10;;;;;;;11.50;8.98;;;;;;;1.64;81.97;99787.62;1758683;81;20888;-72
2022/03/04 01:54:37;;;;;;;14.00;9.38;;;;;;;1.65;81.96;99794.48;1758359;81;20995;-71
2022/03/04 01:57:04;;;;;;;11.75;8.88;;;;;;;1.64;81.95;99796.66;1758615;80;21140;-73
2022/03/04 01:59:31;;;;;;;14.05;10.53;;;;;;;1.62;81.97;99796.73;1758198;80;20920;-72
2022/03/04 02:01:58;;;;;;;13.40;10.28;;;;;;;1.63;82.10;99797.58;1758465;80;20970;-72
2022/03/04 02:04:25;;;;;;;13.08;8.65;;;;;;;1.62;82.15;99799.33;1758391;80;20984;-73
2022/03/04 02:06:52;;;;;;;11.15;8.60;;;;;;;1.62;82.29;99797.16;1758297;80;20911;-72
2022/03/04 02:09:19;;;;;;;12.50;9.60;;;;;;;1.60;82.35;99790.78;1758295;80;21694;-71
2022/03/04 02:11:48;;;;;;;16.27;9.88;;;;;;;1.59;82.38;99791.66;1758178;81;20838;-72
2022/03/04 02:14:15;;;;;;;13.25;10.08;;;;;;;1.57;82.47;99792.63;1758201;80;20857;-72
2022/03/04 02:16:49;;;;;;;14.30;10.03;;;;;;;1.58;82.58;99788.70;1758330;80;20869;-72
2022/03/04 02:19:17;;;;;;;13.15;9.53;;;;;;;1.59;82.62;99788.25;1757797;81;20916;-72
2022/03/04 02:21:56;;;;;;;13.32;9.75;;;;;;;1.60;82.62;99791.20;1758225;80;21107;-72
2022/03/04 02:24:25;;;;;;;11.80;8.80;;;;;;;1.58;82.62;99791.70;1756011;80;20888;-71
2022/03/04 02:26:53;;;;;;;12.35;8.40;;;;;;;1.57;82.68;99785.70;1758300;80;21422;-72
2022/03/04 02:29:20;;;;;;;10.63;8.63;;;;;;;1.57;82.74;99790.04;1758668;80;20943;-72
2022/03/04 02:31:48;;;;;;;11.78;7.90;;;;;;;1.56;82.76;99789.66;1758596;81;20988;-72
2022/03/04 02:34:15;;;;;;;10.00;8.33;;;;;;;1.56;82.72;99795.66;1758845;81;20956;-72
2022/03/04 02:36:42;;;;;;;12.70;9.45;;;;;;;1.54;82.75;99792.75;1758341;81;21022;-72
2022/03/04 02:39:09;;;;;;;12.30;8.38;;;;;;;1.53;82.89;99794.92;1741377;81;20936;-73
2022/03/04 02:41:35;;;;;;;12.93;8.80;;;;;;;1.52;82.93;99788.91;1758004;81;20975;-73
2022/03/04 02:44:05;;;;;;;13.43;9.65;;;;;;;1.54;82.97;99793.58;1758303;81;20987;-72
2022/03/04 02:46:32;;;;;;;10.85;8.68;;;;;;;1.57;83.00;99792.63;1757896;81;21047;-73
2022/03/04 02:48:59;;;;;;;13.05;8.38;;;;;;;1.55;82.96;99801.71;1758092;81;20916;-72
2022/03/04 02:51:26;;;;;;;10.38;8.23;;;;;;;1.58;83.04;99792.58;1758009;80;20940;-71
2022/03/04 02:53:53;;;;;;;11.50;8.48;;;;;;;1.58;82.88;99794.30;1758167;81;20936;-73
2022/03/04 02:56:21;;;;;;;12.90;8.55;;;;;;;1.57;82.85;99798.62;1758024;81;20925;-71
2022/03/04 02:58:48;;;;;;;14.10;8.63;;;;;;;1.57;82.89;99793.91;1758222;81;21082;-71
2022/03/04 03:01:15;;;;;;;10.68;7.65;;;;;;;1.57;82.95;99801.67;1757927;81;20979;-72
2022/03/04 03:03:44;;;;;;;12.25;7.87;;;;;;;1.59;82.98;99802.00;1758161;81;21438;-71
2022/03/04 03:06:11;;;;;;;13.15;9.83;;;;;;;1.59;82.83;99796.83;1758008;81;20892;-72
2022/03/04 03:08:37;;;;;;;11.97;9.15;;;;;;;1.59;82.76;99804.59;1758287;81;20987;-73
2022/03/04 03:11:04;;;;;;;12.23;8.50;;;;;;;1.57;82.71;99798.62;1757972;81;21160;-73
2022/03/04 03:13:31;;;;;;;12.63;9.00;;;;;;;1.56;82.75;99800.83;1758189;80;20857;-72
2022/03/04 03:15:58;;;;;;;11.33;7.92;;;;;;;1.57;82.70;99799.92;1757977;80;20987;-73
2022/03/04 03:18:25;;;;;;;14.45;8.48;;;;;;;1.58;82.73;99794.30;1757823;81;20987;-71
2022/03/04 03:20:52;;;;;;;11.60;8.53;;;;;;;1.60;82.64;99798.95;1758256;80;20928;-71
2022/03/04 03:23:19;;;;;;;11.18;8.38;;;;;;;1.60;82.53;99803.70;1758022;81;21768;-72
2022/03/04 03:25:46;;;;;;;15.03;9.18;;;;;;;1.58;82.42;99790.42;1758251;81;21066;-72
2022/03/04 03:28:13;;;;;;;11.55;8.83;;;;;;;1.57;82.39;99798.62;1744526;81;21375;-71
2022/03/04 03:30:40;;;;;;;13.18;8.60;;;;;;;1.56;82.35;99799.54;1744827;82;20861;-71
2022/03/04 03:33:07;;;;;;;10.30;8.60;;;;;;;1.57;82.26;99805.09;1744564;82;20984;-72
2022/03/04 03:35:34;;;;;;;13.20;9.05;;;;;;;1.59;82.32;99803.30;1744912;81;21152;-71
2022/03/04 03:38:01;;;;;;;11.65;8.68;;;;;;;1.60;82.13;99802.41;1744543;81;20924;-72
2022/03/04 03:40:28;;;;;;;10.00;7.67;;;;;;;1.61;81.99;99796.78;1744898;81;21426;-73
2022/03/04 03:42:55;;;;;;;9.95;7.78;;;;;;;1.59;81.90;99792.95;1744503;81;21351;-71
2022/03/04 03:45:21;;;;;;;13.30;8.58;;;;;;;1.60;81.95;99795.95;1744887;81;20857;-71
2022/03/04 03:47:48;;;;;;;11.22;8.63;;;;;;;1.61;81.86;99792.45;1744616;81;21075;-72
2022/03/04 03:50:15;;;;;;;11.45;7.97;;;;;;;1.63;81.70;99791.95;1744908;80;21053;-71
2022/03/04 03:52:42;;;;;;;12.98;9.23;;;;;;;1.64;81.51;99797.95;1744591;81;20881;-71
2022/03/04 03:55:09;;;;;;;12.88;8.80;;;;;;;1.63;81.43;99798.87;1744894;81;20956;-72
2022/03/04 03:57:36;;;;;;;13.40;9.48;;;;;;;1.65;81.34;99802.23;1744631;81;20929;-72
2022/03/04 04:00:05;;;;;;;12.58;8.93;;;;;;;1.62;81.17;99801.05;1744873;82;21152;-71
2022/03/04 04:02:34;;;;;;;13.22;9.03;;;;;;;1.62;81.12;99805.78;1744066;81;21467;-72
2022/03/04 04:05:00;;;;;;;11.48;8.70;;;;;;;1.62;81.08;99810.09;1744816;82;21382;-72
2022/03/04 04:07:27;;;;;;;14.53;9.20;;;;;;;1.62;80.94;99808.80;1744573;81;20955;-72
2022/03/04 04:09:54;;;;;;;11.95;7.62;;;;;;;1.62;80.77;99816.13;1744921;81;20881;-73
2022/03/04 04:12:22;;;;;;;13.13;8.63;;;;;;;1.61;80.84;99811.84;1744620;81;21287;-73
2022/03/04 04:14:49;;;;;;;10.95;7.65;;;;;;;1.61;80.79;99809.25;1744533;81;20968;-72
2022/03/04 04:17:16;;;;;;;10.25;8.13;;;;;;;1.62;80.78;99808.80;1744769;81;20908;-72
2022/03/04 04:19:43;;;;;;;11.10;8.25;;;;;;;1.61;80.60;99807.12;1744639;80;20858;-72
2022/03/04 04:22:10;;;;;;;12.03;8.88;;;;;;;1.62;80.59;99808.80;1744981;82;21027;-72
2022/03/04 04:24:36;;;;;;;12.05;7.60;;;;;;;1.63;80.52;99806.62;1744784;82;21779;-73
2022/03/04 04:27:04;;;;;;;13.53;8.10;;;;;;;1.65;80.40;99810.83;1749847;80;21351;-73
2022/03/04 04:29:31;;;;;;;12.33;8.33;;;;;;;1.66;80.35;99814.25;1757981;80;20959;-72
2022/03/04 04:31:57;;;;;;;11.43;7.78;;;;;;;1.69;80.42;99821.05;1758254;80;20901;-72
2022/03/04 04:34:24;;;;;;;12.35;8.48;;;;;;;1.72;80.33;99818.37;1758119;81;20884;-72
2022/03/04 04:36:53;;;;;;;11.28;7.33;;;;;;;1.74;80.28;99823.03;1758181;80;21393;-73
2022/03/04 04:39:19;;;;;;;10.38;7.60;;;;;;;1.75;80.26;99820.83;1757893;81;20983;-72
2022/03/04 04:41:46;;;;;;;12.60;7.83;;;;;;;1.75;80.17;99824.25;1758257;81;20900;-71
2022/03/04 04:44:13;;;;;;;10.78;7.90;;;;;;;1.75;80.10;99828.58;1757863;81;20853;-73
2022/03/04 04:46:40;;;;;;;13.22;9.60;;;;;;;1.77;80.00;99830.66;1758162;80;20860;-72
2022/03/04 04:49:07;;;;;;;12.88;8.83;;;;;;;1.76;79.91;99836.75;1757963;80;21105;-71
2022/03/04 04:51:34;;;;;;;12.60;8.43;;;;;;;1.75;79.93;99833.75;1758211;81;20923;-72
2022/03/04 04:54:01;;;;;;;10.85;8.03;;;;;;;1.72;79.96;99832.13;1757899;81;20924;-73
2022/03/04 04:56:27;;;;;;;14.58;9.73;;;;;;;1.72;79.96;99830.00;1757941;81;21567;-72
2022/03/04 04:58:55;;;;;;;13.13;8.40;;;;;;;1.70;80.03;99831.79;1757851;81;21314;-72
2022/03/04 05:01:21;;;;;;;17.55;9.60;;;;;;;1.69;80.12;99828.80;1758186;81;21843;-73
2022/03/04 05:03:48;;;;;;;11.28;7.95;;;;;;;1.68;80.20;99826.67;1757715;81;20963;-74
2022/03/04 05:06:15;;;;;;;11.20;7.90;;;;;;;1.68;80.20;99836.17;1758166;81;20979;-73
2022/03/04 05:08:42;;;;;;;11.73;7.87;;;;;;;1.69;80.27;99837.84;1757896;81;20916;-73
2022/03/04 05:11:09;;;;;;;12.03;8.40;;;;;;;1.70;80.32;99839.55;1758157;80;20975;-74
2022/03/04 05:13:36;;;;;;;14.18;9.13;;;;;;;1.72;80.30;99836.46;1757774;81;21156;-73
2022/03/04 05:16:03;;;;;;;12.45;8.48;;;;;;;1.76;80.33;99843.20;1758113;81;21454;-72
2022/03/04 05:18:31;;;;;;;12.65;8.50;;;;;;;1.80;80.36;99842.17;1757742;81;20975;-72
2022/03/04 05:20:58;;;;;;;12.58;8.90;;;;;;;1.83;80.11;99845.95;1758028;81;20908;-72
2022/03/04 05:26:03;;;;;;;11.90;7.85;;;;;;;1.90;79.99;99852.58;1717405;81;22049;-72
2022/03/04 05:28:30;;;;;;;11.68;8.38;;;;;;;1.94;79.82;99859.78;1757786;80;20952;-74
2022/03/04 05:30:56;;;;;;;12.98;7.95;;;;;;;1.94;79.57;99858.49;1758014;81;20936;-73
2022/03/04 05:33:23;;;;;;;13.20;7.60;;;;;;;1.94;79.55;99856.74;1758167;81;20892;-71
2022/03/04 05:35:50;;;;;;;11.80;8.10;;;;;;;1.94;79.38;99854.16;1758006;80;20884;-72
2022/03/04 05:38:17;;;;;;;10.90;8.28;;;;;;;1.95;79.41;99853.24;1758123;81;21913;-71
2022/03/04 05:40:44;;;;;;;12.40;7.53;;;;;;;1.96;79.44;99860.12;1757892;81;20892;-73
2022/03/04 05:43:11;;;;;;;11.90;7.85;;;;;;;2.01;79.44;99859.95;1758297;81;20923;-74
2022/03/04 05:45:38;;;;;;;14.03;8.85;;;;;;;2.04;79.12;99864.53;1757887;81;20987;-73
2022/03/04 05:48:06;;;;;;;12.10;7.95;;;;;;;2.07;78.97;99867.03;1758121;80;20860;-73
2022/03/04 05:50:33;;;;;;;14.25;8.60;;;;;;;2.07;78.68;99870.91;1757818;80;22086;-72
2022/03/04 05:53:00;;;;;;;13.05;8.68;;;;;;;2.10;78.48;99876.87;1757799;81;21002;-72
2022/03/04 05:55:27;;;;;;;12.93;9.30;;;;;;;2.11;78.24;99865.61;1757728;80;20967;-73
2022/03/04 05:57:54;;;;;;;10.03;7.95;;;;;;;2.12;78.15;99868.60;1757803;80;20975;-72
2022/03/04 06:00:21;;;;;;;12.25;8.43;;;;;;;2.13;78.32;99868.98;1757875;81;20904;-72
2022/03/04 06:02:48;;;;;;;10.75;7.62;;;;;;;2.15;78.25;99877.53;1757757;81;21891;-73
2022/03/04 06:05:15;;;;;;;11.80;8.40;;;;;;;2.19;78.29;99881.69;1757661;81;21394;-74
2022/03/04 06:07:42;;;;;;;14.55;9.33;;;;;;;2.23;78.06;99889.73;1757935;81;20919;-73
2022/03/04 06:10:09;;;;;;;9.30;7.53;;;;;;;2.26;78.05;99896.08;1757854;80;20967;-73
2022/03/04 06:12:36;;;;;;;12.30;9.00;;;;;;;2.31;77.92;99890.27;1757919;80;21484;-72
2022/03/04 06:15:04;;;;;;;11.88;7.55;;;;;;;2.35;77.77;99894.89;1757908;81;21179;-72
2022/03/04 06:17:31;;;;;;;9.83;8.15;;;;;;;2.35;77.45;99899.61;1758035;81;20880;-73
2022/03/04 06:19:58;;;;;;;12.00;8.53;;;;;;;2.38;77.05;99893.47;1757861;81;20935;-73
2022/03/04 06:22:25;;;;;;;10.78;8.58;;;;;;;2.39;76.85;99896.47;1757963;81;21280;-73
2022/03/04 06:24:51;;;;;;;12.95;9.50;;;;;;;2.39;76.71;99902.93;1758536;80;21284;-74
2022/03/04 06:27:18;;;;;;;14.95;9.73;;;;;;;2.41;76.92;99905.85;1754955;80;21094;-75
2022/03/04 06:29:45;;;;;;;14.33;10.10;;;;;;;2.44;76.79;99910.06;1744589;81;20964;-73
2022/03/04 06:32:15;;;;;;;12.40;8.83;;;;;;;2.47;76.62;99908.67;1744630;81;20905;-74
2022/03/04 06:34:41;;;;;;;12.68;8.80;;;;;;;2.47;76.52;99904.33;1744498;81;20940;-75
2022/03/04 06:37:08;;;;;;;13.88;10.50;;;;;;;2.53;76.57;99906.28;1744734;81;20889;-76
2022/03/04 06:39:35;;;;;;;14.73;9.73;;;;;;;2.58;76.54;99910.39;1744614;80;21520;-74
2022/03/04 06:42:03;;;;;;;17.50;11.55;;;;;;;2.59;76.38;99912.06;1744536;82;20924;-76
2022/03/04 06:44:29;;;;;;;14.83;9.93;;;;;;;2.58;76.16;99910.82;1744661;81;20972;-74
2022/03/04 06:46:58;;;;;;;15.65;11.28;;;;;;;2.59;76.11;99913.81;1744467;82;20948;-74
2022/03/04 06:49:25;;;;;;;15.40;9.85;;;;;;;2.59;75.95;99916.41;1744661;81;20921;-74
2022/03/04 06:51:52;;;;;;;15.78;11.60;;;;;;;2.59;76.05;99917.23;1744556;81;21486;-73
2022/03/04 06:54:19;;;;;;;12.07;9.30;;;;;;;2.62;76.04;99919.73;1744811;81;21469;-75
2022/03/04 06:56:46;;;;;;;12.50;9.48;;;;;;;2.63;75.85;99920.11;1744576;81;21375;-74
2022/03/04 06:59:13;;;;;;;16.15;9.78;;;;;;;2.63;75.58;99916.23;1744748;81;20857;-74
2022/03/04 07:01:40;;;;;;;15.68;9.98;;;;;;;2.67;75.45;99915.67;1744546;82;20928;-73
2022/03/04 07:04:06;;;;;;;13.48;9.63;;;;;;;2.71;75.76;99912.03;1744941;81;21191;-73
2022/03/04 07:06:33;;;;;;;14.23;10.50;;;;;;;2.77;75.64;99904.03;1744455;80;20928;-74
2022/03/04 07:09:00;;;;;;;11.57;8.65;;;;;;;2.81;75.40;99903.02;1744852;81;20936;-72
2022/03/04 07:11:27;;;;;;;10.25;8.70;;;;;;;2.78;75.30;99894.51;1744475;80;20901;-74
2022/03/04 07:13:54;;;;;;;12.23;8.93;;;;;;;2.83;75.01;99906.84;1744651;81;21387;-74
2022/03/04 07:16:22;;;;;;;10.15;8.18;;;;;;;2.84;74.80;99910.64;1744609;82;22029;-73
2022/03/04 07:18:50;;;;;;;11.35;8.55;;;;;;;2.85;74.73;99910.22;1744541;82;20932;-73
2022/03/04 07:21:17;;;;;;;10.32;7.50;;;;;;;2.88;74.64;99907.50;1744645;81;21429;-72
2022/03/04 07:23:44;;;;;;;11.08;8.30;;;;;;;2.88;74.37;99905.74;1744643;81;20901;-73
2022/03/04 07:26:12;;;;;;;11.30;8.10;;;;;;;2.87;74.52;99906.66;1744860;81;20924;-74
2022/03/04 07:28:39;;;;;;;11.55;7.60;;;;;;;2.89;74.73;99904.86;1744660;80;21749;-74
2022/03/04 07:31:07;;;;;;;9.75;7.53;;;;;;;2.88;74.11;99907.50;1744456;82;20976;-73
2022/03/04 07:33:36;;;;;;;10.58;7.80;;;;;;;2.88;74.18;99916.56;1744870;81;20928;-73
2022/03/04 07:36:04;;;;;;;11.08;8.63;;;;;;;2.87;74.37;99913.13;1744536;81;20897;-73
2022/03/04 07:38:31;;;;;;;10.82;7.78;;;;;;;2.88;74.24;99913.52;1744789;81;20877;-72
2022/03/04 07:40:59;;;;;;;10.80;8.40;;;;;;;2.87;74.13;99911.84;1744508;81;21389;-73
2022/03/04 07:43:26;;;;;;;10.05;6.78;;;;;;;2.87;73.99;99909.25;1744799;80;21450;-74
2022/03/04 07:45:53;;;;;;;12.40;8.23;;;;;;;2.88;73.89;99906.20;1744497;81;20893;-73
2022/03/04 07:48:20;;;;;;;10.53;8.45;;;;;;;2.87;73.93;99905.37;1745062;81;20972;-72
2022/03/04 07:50:47;;;;;;;11.50;8.65;;;;;;;2.91;73.99;99903.48;1744522;82;20953;-73
2022/03/04 07:53:15;;;;;;;10.40;8.20;;;;;;;2.94;73.74;99902.54;1744566;82;21212;-74
2022/03/04 07:55:43;;;;;;;11.43;7.60;;;;;;;2.96;73.62;99909.77;1744498;81;21362;-75
2022/03/04 07:58:10;;;;;;;11.88;7.90;;;;;;;2.95;73.72;99910.22;1744766;81;20929;-72
2022/03/04 08:00:37;;;;;;;11.57;8.95;;;;;;;2.97;73.44;99913.59;1744461;81;20968;-74
2022/03/04 08:03:04;;;;;;;12.50;8.45;;;;;;;3.00;73.60;99912.20;1744861;81;20901;-75
2022/03/04 08:05:32;;;;;;;8.70;7.45;;;;;;;3.04;73.68;99915.48;1744622;80;21435;-74
2022/03/04 08:07:59;;;;;;;9.45;7.42;;;;;;;3.10;73.40;99919.13;1744747;80;20904;-72
2022/03/04 08:10:26;;;;;;;9.60;7.83;;;;;;;3.14;73.21;99901.27;1744527;81;20960;-72
2022/03/04 08:12:54;;;;;;;9.58;7.47;;;;;;;3.16;73.23;99916.30;1744561;81;21490;-74
2022/03/04 08:15:21;;;;;;;9.40;7.70;;;;;;;3.20;73.04;99918.30;1744406;81;20924;-73
2022/03/04 08:17:51;;;;;;;8.83;7.37;;;;;;;3.23;72.79;99929.39;1744546;81;21327;-72
2022/03/04 08:20:21;;;;;;;11.22;7.85;;;;;;;3.24;72.70;99927.17;1744536;82;20861;-74
2022/03/04 08:22:51;;;;;;;9.20;8.23;;;;;;;3.29;72.89;99923.97;1744701;80;20869;-74
2022/03/04 08:25:19;;;;;;;10.35;7.03;;;;;;;3.34;72.45;99928.12;1744543;80;20897;-72
2022/03/04 08:27:47;;;;;;;9.65;7.17;;;;;;;3.33;71.97;99933.73;1745939;80;20936;-72
2022/03/04 08:30:14;;;;;;;12.68;8.45;;;;;;;3.35;72.03;99937.56;1757801;81;21988;-75
2022/03/04 08:32:41;;;;;;;8.73;6.58;;;;;;;3.36;72.21;99942.69;1758088;80;21583;-76
2022/03/04 08:35:09;;;;;;;7.40;6.10;;;;;;;3.38;71.45;99951.67;1757911;81;20988;-74
2022/03/04 08:37:37;;;;;;;9.43;6.92;;;;;;;3.37;71.38;99952.14;1757842;81;21440;-74
2022/03/04 08:40:06;;;;;;;7.85;6.25;;;;;;;3.38;71.23;99942.61;1757849;81;20881;-72
2022/03/04 08:42:35;;;;;;;8.18;6.28;;;;;;;3.39;70.85;99943.02;1757918;81;21346;-74
2022/03/04 08:45:06;;;;;;;8.20;5.55;;;;;;;3.36;70.52;99950.47;1757820;81;20881;-73
2022/03/04 08:47:33;;;;;;;8.43;6.28;;;;;;;3.35;70.30;99944.05;1758004;80;20857;-72
2022/03/04 08:50:00;;;;;;;7.03;5.42;;;;;;;3.34;70.55;99948.84;1757744;81;21521;-72
2022/03/04 08:52:28;;;;;;;9.38;6.83;;;;;;;3.37;70.67;99951.30;1757692;81;20952;-73
2022/03/04 08:54:56;;;;;;;9.35;6.05;;;;;;;3.38;70.87;99949.95;1757772;81;21256;-74
2022/03/04 08:57:23;;;;;;;8.68;6.30;;;;;;;3.42;70.74;99957.13;1758086;81;20877;-73
2022/03/04 08:59:51;;;;;;;9.98;6.47;;;;;;;3.43;70.68;99940.23;1757819;81;20976;-74
2022/03/04 09:02:18;;;;;;;8.33;6.40;;;;;;;3.46;71.01;99945.73;1758123;81;20932;-73
2022/03/04 09:04:46;;;;;;;7.20;6.05;;;;;;;3.48;70.91;99946.06;1757760;80;21524;-73
2022/03/04 09:07:13;;;;;;;9.53;6.28;;;;;;;3.51;71.03;99947.67;1758568;81;21108;-73
2022/03/04 09:09:41;;;;;;;6.90;5.83;;;;;;;3.55;70.98;99941.92;1758063;81;20928;-73
2022/03/04 09:12:09;;;;;;;7.58;6.70;;;;;;;3.55;71.21;99947.94;1761963;79;21050;-73
2022/03/04 09:14:38;;;;;;;9.30;6.87;;;;;;;3.57;71.42;99947.42;1789532;80;20922;-73
2022/03/04 09:17:08;;;;;;;7.67;6.40;;;;;;;3.62;71.62;99940.28;1787836;80;21515;-73
2022/03/04 09:19:35;;;;;;;9.18;7.45;;;;;;;3.69;71.58;99940.87;1789570;80;21295;-73
2022/03/04 09:22:03;;;;;;;9.70;7.25;;;;;;;3.72;71.42;99946.78;1789521;80;20871;-73
2022/03/04 09:24:30;;;;;;;8.30;7.03;;;;;;;3.78;71.47;99948.71;1789528;78;20947;-73
2022/03/04 09:26:57;;;;;;;8.48;6.40;;;;;;;3.85;71.65;99945.81;1789468;78;20955;-73
2022/03/04 09:29:24;;;;;;;9.38;6.80;;;;;;;3.91;71.36;99948.58;1787820;80;20864;-73
2022/03/04 09:31:51;;;;;;;9.45;6.22;;;;;;;3.93;71.23;99951.94;1786495;80;21125;-73
2022/03/04 09:34:19;;;;;;;8.60;6.65;;;;;;;3.93;71.08;99948.92;1786543;80;20947;-74
2022/03/04 09:36:46;;;;;;;10.70;7.42;;;;;;;3.92;71.49;99947.68;1786700;80;20950;-72
2022/03/04 09:39:13;;;;;;;9.18;7.35;;;;;;;3.92;71.42;99949.81;1786368;79;20891;-71
2022/03/04 09:41:40;;;;;;;9.25;7.25;;;;;;;3.95;71.33;99947.08;1786752;80;20891;-73
2022/03/04 09:44:08;;;;;;;7.72;6.60;;;;;;;3.96;71.15;99955.72;1786619;80;21015;-75
2022/03/04 09:46:35;;;;;;;7.97;7.03;;;;;;;3.90;71.06;99944.31;1786441;80;21370;-72
2022/03/04 09:49:02;;;;;;;10.98;7.35;;;;;;;3.85;71.14;99947.56;1786666;80;20852;-73
2022/03/04 09:51:30;;;;;;;8.15;6.67;;;;;;;3.86;71.26;99945.34;1786681;80;20891;-72
2022/03/04 09:53:58;;;;;;;13.58;7.00;;;;;;;3.86;71.27;99950.53;1786594;80;20884;-74
2022/03/04 09:56:26;;;;;;;10.40;7.47;;;;;;;3.86;71.32;99951.37;1786573;79;21299;-74
2022/03/04 09:58:53;;;;;;;12.47;6.92;;;;;;;3.89;71.43;99951.69;1786353;80;20907;-73
2022/03/04 10:01:20;;;;;;;10.08;7.65;;;;;;;3.87;71.47;99947.88;1786567;79;20915;-72
2022/03/04 10:03:51;;;;;;;11.65;8.18;;;;;;;3.85;71.64;99952.29;1786572;80;20919;-75
2022/03/04 10:06:19;;;;;;;10.10;6.10;;;;;;;3.85;71.58;99954.05;1786618;80;20923;-74
2022/03/04 10:08:50;;;;;;;10.63;7.55;;;;;;;3.88;71.69;99951.31;1786598;80;21130;-74
2022/03/04 10:11:27;;;;;;;10.15;6.40;;;;;;;3.91;71.67;99951.16;1786576;79;20899;-74
2022/03/04 10:14:03;;;;;;;9.30;6.80;;;;;;;3.94;71.67;99950.59;1784162;80;20880;-72
2022/03/04 10:16:33;;;;;;;11.30;7.87;;;;;;;3.95;71.31;99937.99;1786632;79;20951;-73
2022/03/04 10:19:17;;;;;;;10.23;6.17;;;;;;;3.95;71.34;99943.19;1787016;80;21456;-74
2022/03/04 10:21:53;;;;;;;9.35;7.03;;;;;;;3.98;71.39;99943.96;1786806;80;21341;-75
2022/03/04 10:24:30;;;;;;;10.15;7.35;;;;;;;4.00;71.18;99940.38;1786551;80;20915;-74
2022/03/04 10:27:10;;;;;;;9.30;6.90;;;;;;;4.01;71.28;99938.20;1786619;79;20962;-74
2022/03/04 10:29:41;;;;;;;9.08;6.37;;;;;;;4.02;71.26;99932.08;1783694;79;21077;-74
2022/03/04 10:32:24;;;;;;;10.60;7.28;;;;;;;4.08;71.02;99935.71;1780780;79;21393;-75
2022/03/04 10:35:06;;;;;;;8.65;6.03;;;;;;;4.09;70.86;99936.11;1781208;80;21140;-74
2022/03/04 10:37:52;;;;;;;10.45;7.05;;;;;;;4.10;70.77;99927.88;1781079;80;21412;-74
2022/03/04 10:40:22;;;;;;;9.93;6.42;;;;;;;4.11;70.67;99938.19;1780847;80;20959;-73
2022/03/04 10:43:01;;;;;;;9.35;6.40;;;;;;;4.12;70.77;99929.48;1781012;80;20955;-75
2022/03/04 10:45:30;;;;;;;11.22;8.18;;;;;;;4.15;70.57;99932.39;1780779;80;20923;-73
2022/03/04 10:48:09;;;;;;;8.90;6.92;;;;;;;4.14;70.59;99932.85;1780769;80;20967;-73
2022/03/04 10:50:40;;;;;;;12.53;7.17;;;;;;;4.18;70.42;99932.27;1780983;79;21374;-73
2022/03/04 10:53:16;;;;;;;12.82;9.18;;;;;;;4.22;70.63;99921.28;1780433;80;20998;-73
2022/03/04 10:55:51;;;;;;;12.25;7.55;;;;;;;4.24;70.16;99920.76;1780773;79;21002;-72
2022/03/04 10:58:27;;;;;;;8.63;6.10;;;;;;;4.24;70.09;99920.30;1780771;79;20939;-73
2022/03/04 11:01:02;;;;;;;9.50;6.05;;;;;;;4.21;70.25;99920.45;1780740;80;21041;-73
2022/03/04 11:03:32;;;;;;;8.03;5.83;;;;;;;4.21;70.35;99912.66;1780126;80;21383;-73
2022/03/04 11:06:06;;;;;;;7.75;5.85;;;;;;;4.20;70.32;99908.36;1780687;80;20947;-73
2022/03/04 11:08:33;;;;;;;9.90;6.03;;;;;;;4.22;70.37;99911.73;1780877;79;20908;-73
2022/03/04 11:11:01;;;;;;;8.60;6.03;;;;;;;4.22;70.29;99905.25;1781129;80;21342;-72
2022/03/04 11:13:33;;;;;;;7.58;5.78;;;;;;;4.22;70.27;99907.01;1780932;80;21069;-73
2022/03/04 11:16:00;;;;;;;10.25;7.03;;;;;;;4.21;70.32;99909.23;1781182;80;21318;-73
2022/03/04 11:18:28;;;;;;;9.45;6.75;;;;;;;4.20;70.14;99910.95;1780714;80;20962;-73
2022/03/04 11:20:58;;;;;;;8.60;6.12;;;;;;;4.19;70.19;99917.54;1780732;80;21552;-73
2022/03/04 11:23:31;;;;;;;9.25;6.55;;;;;;;4.14;70.16;99917.28;1780862;79;20935;-73
2022/03/04 11:26:04;;;;;;;11.75;6.70;;;;;;;4.11;70.27;99912.25;1780052;80;22473;-73
2022/03/04 11:28:40;;;;;;;11.88;7.45;;;;;;;4.14;70.58;99913.39;1780669;80;20860;-74
2022/03/04 11:31:12;;;;;;;11.68;7.75;;;;;;;4.17;70.29;99911.11;1780525;79;20955;-72
2022/03/04 11:33:48;;;;;;;11.10;7.80;;;;;;;4.16;70.33;99921.12;1780385;80;20892;-72
2022/03/04 11:36:18;;;;;;;12.10;7.65;;;;;;;4.17;70.58;99915.00;1780716;80;21433;-73
2022/03/04 11:38:54;;;;;;;11.25;7.17;;;;;;;4.17;70.45;99911.11;1781031;80;21186;-74
2022/03/04 11:41:34;;;;;;;12.78;7.67;;;;;;;4.13;70.34;99918.17;1780791;80;20832;-72
2022/03/04 11:44:15;;;;;;;17.98;9.15;;;;;;;4.09;70.55;99920.55;1781071;80;20833;-73
2022/03/04 11:47:01;;;;;;;10.60;8.08;;;;;;;4.08;70.83;99914.95;1780714;79;21346;-72